Terminal Aerodrome Forecast
Issued by NWS

Home | Current Version | Previous Version | Text Only | Print | Product List | Glossary On
Versions: 1 2 3 4 5 6 7 8 9 10 11 12
000
FTUS43 KEAX 211700
TAFMKC
TAF
KMKC 211720Z 2118/2218 19011G21KT P6SM SCT250
     FM212300 18012KT P6SM SCT250
     FM220700 18010KT P6SM SCT150 BKN250
     FM221400 21014KT P6SM SCT150 SCT250=

USA.gov is the U.S. government's official web portal to all federal, state and local government web resources and services.